LiveATC.Net - Listen to live air traffic control over the Internet!
Airport/ARTCC Code
Frequency Search
(e.g., 124.400, 128.75)
Site-wide search
 


Browse Feeds
Top 50 Feeds
Coverage Map
Bad Weather Areas

LiveATC FAQ
Offer LiveATC feed
Contact LiveATC.net
Press Inquiries

LiveATC on iPhone
LiveATC on Android

Windows Phone
Windows 8/10

LiveATC Mobile
(Mobile browser)

ATC Audio Archives
Interesting Recordings

LiveATC Forums

Home Page
About LiveATC.net
Make a Donation
Terms of Use
Privacy Policy

Canadian Air Freqs

AIRMETs/SIGMETs

FAA Airport Status
Nat'l Airspace Status
Arrival Demand Charts


Server Software By:
Icecast.org
Liquidsoap

Select an area of interest:
U.S. Feeds: Class B Airports | Class C Airports | Class D/Other Airports | ARTCC (Centers)
International Feeds: Canada | Europe | Oceania | Asia | South America | North/Central America | Africa
Misc Feeds: HF Feeds
Search by ICAO/IATA airport code:   (e.g., kbos, kjfk, lax, eham, etc.)


Currently Available Live Feeds: 2712
Status Updated: Sun Jan 24 2021 19:00:04 UTC


NOTICE

Unauthorized use prohibited. See LiveATC.net Terms of Service

North and Central America Airport Feeds

 

MDPP App/Dep (Archives)
Puerto Plata, Dominican Republic

Feed Status: UP
Listen in your browser - HTML5 player(in browser, HTML5)
Click here to listen with your own player(launches your MP3 player)

MDPP 241800Z 06015KT 9999 FEW028 29/23 Q1016 NOSIG

MDPP Flight Activity (Flightaware)

Listeners: 0 out of 1445 total

Puerto Plata Approach/Departure: 119.000

MDPP Ground/Center (Archives)
Puerto Plata, Dominican Republic

Feed Status: UP
Listen in your browser - HTML5 player(in browser, HTML5)
Click here to listen with your own player(launches your MP3 player)

MDPP 241800Z 06015KT 9999 FEW028 29/23 Q1016 NOSIG

MDPP Flight Activity (Flightaware)

Listeners: 0 out of 1445 total

Puerto Plata Ground: 121.900
Santo Domingo Center: 124.300

MDPP Ground/Tower/Center (Archives)
Puerto Plata, Dominican Republic

Feed Status: UP
Listen in your browser - HTML5 player(in browser, HTML5)
Click here to listen with your own player(launches your MP3 player)

MDPP 241800Z 06015KT 9999 FEW028 29/23 Q1016 NOSIG

MDPP Flight Activity (Flightaware)

Listeners: 0 out of 1445 total

Puerto Plata Ground: 121.900
Puerto Plata Tower: 118.000
Santo Domingo Center: 124.300

MDPP Tower (Archives)
Puerto Plata, Dominican Republic

Feed Status: UP
Listen in your browser - HTML5 player(in browser, HTML5)
Click here to listen with your own player(launches your MP3 player)

MDPP 241800Z 06015KT 9999 FEW028 29/23 Q1016 NOSIG

MDPP Flight Activity (Flightaware)

Listeners: 0 out of 1445 total

Puerto Plata Tower: 118.000

MMCU Twr/App (Archives)
Chihuahua, Mexico

Feed Status: UP
Listen in your browser - HTML5 player(in browser, HTML5)
Click here to listen with your own player(launches your MP3 player)

MMCU 241757Z RTD 20012KT 10SM SKC 21/M02 A2986 RMK SLP052 57050 991

MMCU Flight Activity (Flightaware)

Listeners: 0 out of 1445 total

Chihuahua Approach: 121.000
Chihuahua Tower: 118.400

MMGL Twr/App
Guadalajara, Mexico

Feed Status: DOWN
Offline since: 2021-01-24 18:45:06 UTC

MMGL 241749Z 10004KT 10SM SCT300 23/01 A3019 RMK SLP118 52006 914 8/002

Guadalajara Approach: 120.800
Guadalajara Tower: 118.100

MMHO App/Dep (Archives)
Hermosillo, Mexico

Feed Status: UP
Listen in your browser - HTML5 player(in browser, HTML5)
Click here to listen with your own player(launches your MP3 player)

MMHO 241743Z 22008KT 10SM FEW015 BKN025 16/12 A2998 RMK SLP158 52015 963 8/500 HZY

MMHO Flight Activity (Flightaware)

Listeners: 0 out of 1445 total

Hermosillo Approach/Departure: 121.400

MMHO Info (Archives)
Hermosillo, Mexico

Feed Status: UP
Listen in your browser - HTML5 player(in browser, HTML5)
Click here to listen with your own player(launches your MP3 player)

MMHO 241743Z 22008KT 10SM FEW015 BKN025 16/12 A2998 RMK SLP158 52015 963 8/500 HZY

MMHO Flight Activity (Flightaware)

Listeners: 0 out of 1445 total

Hermosillo Info: 122.300

MMHO Tower (Archives)
Hermosillo, Mexico

Feed Status: UP
Listen in your browser - HTML5 player(in browser, HTML5)
Click here to listen with your own player(launches your MP3 player)

MMHO 241743Z 22008KT 10SM FEW015 BKN025 16/12 A2998 RMK SLP158 52015 963 8/500 HZY

MMHO Flight Activity (Flightaware)

Listeners: 0 out of 1445 total

Hermosillo Tower: 118.700

MMHO Twr/App (Archives)
Hermosillo, Mexico

Feed Status: UP
Listen in your browser - HTML5 player(in browser, HTML5)
Click here to listen with your own player(launches your MP3 player)

MMHO 241743Z 22008KT 10SM FEW015 BKN025 16/12 A2998 RMK SLP158 52015 963 8/500 HZY

MMHO Flight Activity (Flightaware)

Listeners: 0 out of 1445 total

Hermosillo Approach/Departure: 121.400
Hermosillo Info: 122.300
Hermosillo Tower: 118.700

MMLP Twr/App (Archives)
La Paz, Mexico

Feed Status: UP
Listen in your browser - HTML5 player(in browser, HTML5)
Click here to listen with your own player(launches your MP3 player)

MMLP 241740Z 00000KT 10SM FEW030 FEW100 19/08 A3007 RMK SLP181 52013 908 8/830 ISOL CI

MMLP Flight Activity (Flightaware)

Listeners: 1 out of 1445 total

La Paz Approach: 120.600
La Paz Tower: 118.100

MMMD App/Dep (Archives)
Merida, Mexico

Feed Status: UP
Listen in your browser - HTML5 player(in browser, HTML5)
Click here to listen with your own player(launches your MP3 player)

MMMD 241748Z 10013KT 7SM BKN020 BKN300 29/21 A3000 RMK SLP162 57011 903 8/108

MMMD Flight Activity (Flightaware)

Listeners: 0 out of 1445 total

Merida Approach: 121.200

MMMD Merida Center 125.2/128.2 (Archives)
Merida, Mexico

Feed Status: UP
Listen in your browser - HTML5 player(in browser, HTML5)
Click here to listen with your own player(launches your MP3 player)

MMMD 241748Z 10013KT 7SM BKN020 BKN300 29/21 A3000 RMK SLP162 57011 903 8/108

MMMD Flight Activity (Flightaware)

Listeners: 0 out of 1445 total

Merida Center: 125.200
Merida Center: 128.200

MMMD Merida Center 125.8/123.75 (Archives)
Merida, Mexico

Feed Status: UP
Listen in your browser - HTML5 player(in browser, HTML5)
Click here to listen with your own player(launches your MP3 player)

MMMD 241748Z 10013KT 7SM BKN020 BKN300 29/21 A3000 RMK SLP162 57011 903 8/108

MMMD Flight Activity (Flightaware)

Listeners: 1 out of 1445 total

Merida Center: 125.800
Merida Center: 123.750

MMMD Tower (Archives)
Merida, Mexico

Feed Status: UP
Listen in your browser - HTML5 player(in browser, HTML5)
Click here to listen with your own player(launches your MP3 player)

MMMD 241748Z 10013KT 7SM BKN020 BKN300 29/21 A3000 RMK SLP162 57011 903 8/108

MMMD Flight Activity (Flightaware)

Listeners: 0 out of 1445 total

Merida Tower: 118.300

MMMM Tower (Archives)
Morelia, Mexico

Feed Status: UP
Listen in your browser - HTML5 player(in browser, HTML5)
Click here to listen with your own player(launches your MP3 player)

MMMM 241740Z 31005KT 8SM BKN300 21/07 A3023 RMK SLP111 57002 951 8/002

MMMM Flight Activity (Flightaware)

Listeners: 0 out of 1445 total

Morelia Tower: 118.500

MMMX Approach (Archives)
Mexico City, Mexico

Feed Status: UP
Listen in your browser - HTML5 player(in browser, HTML5)
Click here to listen with your own player(launches your MP3 player)

MMMX 241747Z 08005KT 7SM OVC250 19/04 A3032 NOSIG RMK SLP105 54000 952 8/007 AC BINOVC HZY

MMMX Flight Activity (Flightaware)

Listeners: 2 out of 1445 total

Mexico City Approach: 121.200

MMMX Twr/App (Archives)
Mexico City, Mexico

Feed Status: UP
Listen in your browser - HTML5 player(in browser, HTML5)
Click here to listen with your own player(launches your MP3 player)

MMMX 241747Z 08005KT 7SM OVC250 19/04 A3032 NOSIG RMK SLP105 54000 952 8/007 AC BINOVC HZY

MMMX Flight Activity (Flightaware)

Listeners: 11 out of 1445 total

Mexico City Approach: 121.200
Mexico City Departure (East): 120.500
Mexico City Departure (West): 129.100
Mexico City Final Approach: 119.750
Mexico City Helicopters: 118.150
Mexico City Terminal: 129.600
Mexico City Tower: 118.550

MMMY Tower/Approach
Monterrey, Mexico

Feed Status: DOWN
Offline since: 2020-12-01 01:21:23 UTC

MMMY 241741Z 00000KT 2SM BR OVC005 21/19 A2986 RMK SLP/// 5//// 9// 8/5//

Monterrey Approach/Departure: 119.750
Monterrey Tower: 118.100

MMSP Gnd/Twr/App/Center (Archives)
San Luis Potosi, Mexico

Feed Status: UP
Listen in your browser - HTML5 player(in browser, HTML5)
Click here to listen with your own player(launches your MP3 player)

MMSP 241754Z 25003KT 12SM BKN230 22/M04 A3019 RMK SLP099 57008 967 8/008

MMSP Flight Activity (Flightaware)

Listeners: 1 out of 1445 total

AMX Ground Ops: 131.000
Mexico Center (North, Sector 6): 126.000
Mexico Center (Northwest, Sector 7): 123.900
Mexico Center (West, Sector 5): 125.100
Potosi Approach: 127.500
Potosi Tower: 118.900
TAO Ground Ops: 133.600

MMTC Twr/App/Center (Archives)
Torreon, Mexico

Feed Status: UP
Listen in your browser - HTML5 player(in browser, HTML5)
Click here to listen with your own player(launches your MP3 player)

MMTC 241750Z 00000KT 10SM FEW100 27/00 A2995 RMK SLP090 57007 970 8/070

MMTC Flight Activity (Flightaware)

Listeners: 1 out of 1445 total

Mazatlan Center: 124.200
Mazatlan Center: 124.400
Mazatlan Center: 128.000
Mexico Center: 123.900
Monterrey Center: 125.600
Monterrey Center: 125.425
Monterrey Center: 127.400
Torreon Approach: 119.500
Torreon Tower: 118.500

MMTJ Approach (Archives)
Tijuana, Mexico

Feed Status: UP
Listen in your browser - HTML5 player(in browser, HTML5)
Click here to listen with your own player(launches your MP3 player)

MMTJ 241747Z 00000KT 8SM FEW010 BKN030 09/09 A2999 RMK SLP/// 52019 901 8/400 ISOL TCU

MMTJ Flight Activity (Flightaware)

Listeners: 0 out of 1445 total

Tijuana Approach: 120.300

MMTJ Twr/Ramp (Archives)
Tijuana, Mexico

Feed Status: UP
Listen in your browser - HTML5 player(in browser, HTML5)
Click here to listen with your own player(launches your MP3 player)

MMTJ 241747Z 00000KT 8SM FEW010 BKN030 09/09 A2999 RMK SLP/// 52019 901 8/400 ISOL TCU

MMTJ Flight Activity (Flightaware)

Listeners: 0 out of 1445 total

Tijuana Ramp: 126.100
Tijuana Tower: 118.100

MUFH Havana FIR (App/Center) (Archives)
Havana, Cuba

Feed Status: UP
Listen in your browser - HTML5 player(in browser, HTML5)
Click here to listen with your own player(launches your MP3 player)

MUFH Flight Activity (Flightaware)

Listeners: 1 out of 1445 total

Hava Approach: 120.300
Havana Center: 120.250
Havana Center: 123.700
Havana Center: 124.550
Havana Center: 133.700
Havana Center: 135.100

TBPB Gnd/Twr/Radar/Center (Archives)
Bridgetown, Barbados

Feed Status: UP
Listen in your browser - HTML5 player(in browser, HTML5)
Click here to listen with your own player(launches your MP3 player)

TBPB 241800Z 09015KT 9999 VCSH SCT016 28/21 Q1012 NOSIG

TBPB Flight Activity (Flightaware)

Listeners: 1 out of 1445 total

Adams Approach/Departure: 129.350
Adams Approach/Departure: 128.850
Adams Ground: 121.900
Adams Tower: 118.700
Piarco Center: 123.700

TNCM App/Dep (Archives)
Philipsburg, Saint Martin

Feed Status: UP
Listen in your browser - HTML5 player(in browser, HTML5)
Click here to listen with your own player(launches your MP3 player)

TNCM 241800Z 06007KT 360V120 9999 FEW018 BKN035 30/19 Q1015 NOSIG

TNCM Flight Activity (Flightaware)

Listeners: 1 out of 1445 total

Juliana Approach (only when busy): 128.950

TNCM Clearance Delivery (Archives)
Philipsburg, Saint Martin

Feed Status: UP
Listen in your browser - HTML5 player(in browser, HTML5)
Click here to listen with your own player(launches your MP3 player)

TNCM 241800Z 06007KT 360V120 9999 FEW018 BKN035 30/19 Q1015 NOSIG

TNCM Flight Activity (Flightaware)

Listeners: 1 out of 1445 total

Juliana Clearance Delivery: 121.650

TNCM Tower (Archives)
Philipsburg, Saint Martin

Feed Status: UP
Listen in your browser - HTML5 player(in browser, HTML5)
Click here to listen with your own player(launches your MP3 player)

TNCM 241800Z 06007KT 360V120 9999 FEW018 BKN035 30/19 Q1015 NOSIG

TNCM Flight Activity (Flightaware)

Listeners: 3 out of 1445 total

Juliana Tower (TNCM): 118.700

TXKF Tower/Ground (Archives)
Hamilton, Bermuda

Feed Status: UP
Listen in your browser - HTML5 player(in browser, HTML5)
Click here to listen with your own player(launches your MP3 player)

TXKF 241755Z 30024KT 9999 BKN042 16/07 Q1014

TXKF Flight Activity (Flightaware)

Listeners: 1 out of 1445 total

Bermuda CTAF: 122.800
Bermuda Ground/Clearance: 124.500
Bermuda Tower: 118.100

ZNY Bermuda Sector (Archives)
Hamilton, Bermuda

Feed Status: UP
Listen in your browser - HTML5 player(in browser, HTML5)
Click here to listen with your own player(launches your MP3 player)

TXKF 241755Z 30024KT 9999 BKN042 16/07 Q1014

TXKF Flight Activity (Flightaware)

Listeners: 0 out of 1445 total

New York Approach (Bermuda Sector) : 119.100
New York Center (Bermuda Sector): 128.500

MHLC Gnd/Twr/Center
La Ceiba, Honduras

Feed Status: DOWN
Offline since: 2020-12-23 14:25:39 UTC

MHLC 241800Z 03009KT 9999 FEW030 BKN200 29/22 Q1013 A2992 NOSIG

CENAMER: 123.900
CENAMER: 124.300
Goloson Ground: 121.900
Goloson Tower: 118.500
La Ceiba Radio: 128.900

MHLM Gnd/Twr/App (Archives)
San Pedro Sula, Honduras

Feed Status: UP
Listen in your browser - HTML5 player(in browser, HTML5)
Click here to listen with your own player(launches your MP3 player)

MHLM 241800Z 35006KT 9999 FEW028 BKN250 29/22 Q1013 A2992 NOSIG

MHLM Flight Activity (Flightaware)

Listeners: 0 out of 1445 total

La Mesa Ground: 121.900
La Mesa Tower: 118.200
San Pedro Sula Approach: 119.700

MHRO Gnd/Twr/App/Center (Archives)
Roatan, Honduras

Feed Status: UP
Listen in your browser - HTML5 player(in browser, HTML5)
Click here to listen with your own player(launches your MP3 player)

MHRO 241800Z 09016KT 9999 FEW018TCU BKN220 28/25 Q1014 A2995 NOSIG

MHRO Flight Activity (Flightaware)

Listeners: 1 out of 1445 total

CENAMER (Center): 124.300
La Ceiba Radio: 128.900
Roatan Ground: 121.600
Roatan Tower: 118.100

MHTG ATIS (Archives)
Tegucigalpa, Honduras

Feed Status: UP
Listen in your browser - HTML5 player(in browser, HTML5)
Click here to listen with your own player(launches your MP3 player)

MHTG 241800Z 03006KT 9999 BKN030 23/15 Q1019 A3009 NOSIG

MHTG Flight Activity (Flightaware)

Listeners: 0 out of 1445 total

Toncontin ATIS: 127.750

MHTG Gnd/Twr/App/Ctr/Ops (Archives)
Tegucigalpa, Honduras

Feed Status: UP
Listen in your browser - HTML5 player(in browser, HTML5)
Click here to listen with your own player(launches your MP3 player)

MHTG 241800Z 03006KT 9999 BKN030 23/15 Q1019 A3009 NOSIG

MHTG Flight Activity (Flightaware)

Listeners: 0 out of 1445 total

American Airlines Ops: 130.700
ARINC ACARS: 131.550
Cenamer Center: 123.900
Cenamer Center: 124.300
Cenamer Center: 124.100
CMP Ops: 129.925
Continental Airlines Ops: 129.925
FAH Ground: 122.900
Taca Ops: 131.300
Taca Ops Sal: 130.300
Tecnologias Unidas: 133.000
Tegucigalpa RDO: 126.700
Toncontin Approach: 119.100
Toncontin Ground: 121.900
Toncontin Tower: 118.700

MROC Del/Gnd/Twr (Archives)
San Jose, Costa Rica

Feed Status: UP
Listen in your browser - HTML5 player(in browser, HTML5)
Click here to listen with your own player(launches your MP3 player)

MROC 241800Z 11013G23KT 070V170 CAVOK 27/13 A2998 NOSIG

MROC Flight Activity (Flightaware)

Listeners: 1 out of 1445 total

Coco Clearance Delivery/Ground: 121.900
Coco Tower: 118.600

MROC Del/Gnd/Twr/App/Center/Misc (Archives)
San Jose, Costa Rica

Feed Status: UP
Listen in your browser - HTML5 player(in browser, HTML5)
Click here to listen with your own player(launches your MP3 player)

MROC 241800Z 11013G23KT 070V170 CAVOK 27/13 A2998 NOSIG

MROC Flight Activity (Flightaware)

Listeners: 8 out of 1445 total

Central American Center (CENAMER Control): 124.100
Coco Center (Control over CR Airspace): 119.600
Coco Clearance Delivery: 121.300
Coco Ground: 121.900
Coco Terminal Control: 120.500
Coco Tower: 118.600
Coco UNICOM: 126.800
SYQ Ground: 121.700
SYQ Tower: 118.300

MRPV Ground/Tower (Archives)
San Jose, Costa Rica

Feed Status: UP
Listen in your browser - HTML5 player(in browser, HTML5)
Click here to listen with your own player(launches your MP3 player)

MRPV 241800Z 07015G26KT 9999 FEW045 25/13 A3001 NOSIG

MRPV Flight Activity (Flightaware)

Listeners: 0 out of 1445 total

Pavas Ground: 121.700
Pavas Tower: 118.300

MSLP Gnd/Twr/App (Archives)
San Salvador, El Salvador

Feed Status: UP
Listen in your browser - HTML5 player(in browser, HTML5)
Click here to listen with your own player(launches your MP3 player)

MSLP 241750Z 15004KT 070V240 9999 FEW033 33/21 Q1010 A2984 NOSIG

MSLP Flight Activity (Flightaware)

Listeners: 1 out of 1445 total

Comalapa Ground: 121.700
Comalapa Tower: 118.000
Compalapa Approach: 119.900

MSLP Gnd/Twr/App/Center (Archives)
San Salvador, El Salvador

Feed Status: UP
Listen in your browser - HTML5 player(in browser, HTML5)
Click here to listen with your own player(launches your MP3 player)

MSLP 241750Z 15004KT 070V240 9999 FEW033 33/21 Q1010 A2984 NOSIG

MSLP Flight Activity (Flightaware)

Listeners: 1 out of 1445 total

Avianca Ops: 123.500
CCA: 119.300
CENAMER: 124.100
Comalapa Authorizations: 121.250
Comalapa Departure: 123.900
Comalapa Ground: 121.700
Comalapa Tower: 118.000
Compalapa Approach: 119.900
Ilopango Tower: 118.300
TACA Ops: 130.500

MSSS Tower
San Salvador, El Salvador

Feed Status: DOWN
Offline since: 2021-01-15 15:05:39 UTC

MSSS 241750Z 15006KT 9999 FEW050 29/18 Q1015 A2999

Ilopango Tower: 118.300